Time,TemperatureF,DewpointF,PressureIn,WindDirection,WindDirectionDegrees,WindSpeedMPH,WindSpeedGustMPH,Humidity,HourlyPrecipIn,Conditions,Clouds,dailyrainin,SoftwareType,DateUTC
2013-06-09 00:00:00,57.0,54.4,30.12,ESE,113,0.0,0.0,91,0.00,,OVC,0.00,VWS V14.01,2013-06-09 04:00:00,
2013-06-09 00:01:00,57.1,54.5,30.12,ESE,113,0.0,0.0,91,0.00,,OVC060,0.02,VWS V14.01,2013-06-09 04:01:00,
2013-06-09 00:02:00,57.0,54.4,30.12,ESE,113,0.0,0.0,91,0.00,,OVC060,0.02,VWS V14.01,2013-06-09 04:02:00,
2013-06-09 00:04:00,56.9,54.3,30.12,ESE,113,0.0,0.0,91,0.00,,OVC060,0.00,VWS V14.01,2013-06-09 04:04:00,
2013-06-09 00:09:00,56.7,54.4,30.12,ESE,104,0.0,0.0,92,0.00,,OVC060,0.00,VWS V14.01,2013-06-09 04:09:00,
2013-06-09 00:14:00,56.3,54.0,30.12,ESE,104,0.0,0.0,92,0.00,,OVC060,0.00,VWS V14.01,2013-06-09 04:14:00,
2013-06-09 00:19:00,56.1,53.8,30.12,ESE,103,0.0,0.0,92,0.00,,OVC060,0.00,VWS V14.01,2013-06-09 04:19:00,
2013-06-09 00:24:00,55.8,53.8,30.12,ESE,103,0.0,0.0,93,0.00,,OVC060,0.00,VWS V14.01,2013-06-09 04:24:00,
2013-06-09 00:29:00,55.6,53.6,30.12,ESE,103,0.0,0.0,93,0.00,,OVC060,0.00,VWS V14.01,2013-06-09 04:29:00,
2013-06-09 00:30:00,55.5,53.5,30.12,East,101,0.0,0.0,93,0.00,,OVC,0.00,VWS V14.01,2013-06-09 04:30:00,
2013-06-09 00:35:00,55.4,53.7,30.12,East,101,0.0,0.0,94,0.00,,OVC065,0.00,VWS V14.01,2013-06-09 04:35:00,
2013-06-09 00:40:00,55.1,53.4,30.12,East,100,0.0,0.0,94,0.00,,OVC065,0.00,VWS V14.01,2013-06-09 04:40:00,
2013-06-09 00:45:00,55.0,53.3,30.12,East,82,0.0,0.0,94,0.00,,OVC065,0.00,VWS V14.01,2013-06-09 04:45:00,
2013-06-09 00:50:00,54.9,53.2,30.12,NE,36,0.0,0.0,94,0.00,,OVC065,0.00,VWS V14.01,2013-06-09 04:50:00,
2013-06-09 00:55:00,54.9,53.2,30.12,NE,35,0.0,0.0,94,0.00,,OVC065,0.00,VWS V14.01,2013-06-09 04:55:00,
2013-06-09 01:00:00,54.8,53.1,30.12,NE,36,0.0,0.0,94,0.00,,OVC065,0.00,VWS V14.01,2013-06-09 05:00:00,
2013-06-09 01:05:00,54.7,53.3,30.12,NE,35,0.0,0.0,95,0.00,,OVC065,0.00,VWS V14.01,2013-06-09 05:05:00,
2013-06-09 01:10:00,54.6,53.2,30.12,NE,36,0.0,0.0,95,0.00,,OVC065,0.00,VWS V14.01,2013-06-09 05:10:00,
2013-06-09 01:15:00,54.5,53.1,30.13,NE,36,0.0,0.0,95,0.00,,OVC065,0.00,VWS V14.01,2013-06-09 05:15:00,
2013-06-09 01:20:00,54.2,52.8,30.13,NE,36,0.0,0.0,95,0.00,,OVC065,0.00,VWS V14.01,2013-06-09 05:20:00,
2013-06-09 01:25:00,54.1,52.7,30.13,NE,36,0.0,0.0,95,0.00,,OVC065,0.00,VWS V14.01,2013-06-09 05:25:00,
2013-06-09 01:30:00,53.9,52.5,30.13,NE,36,0.0,0.0,95,0.00,,OVC065,0.00,VWS V14.01,2013-06-09 05:30:00,
2013-06-09 01:35:00,53.8,52.4,30.13,NE,36,0.0,0.0,95,0.00,,OVC065,0.00,VWS V14.01,2013-06-09 05:35:00,
2013-06-09 01:40:00,53.6,52.2,30.13,NE,35,0.0,0.0,95,0.00,,OVC065,0.00,VWS V14.01,2013-06-09 05:40:00,
2013-06-09 01:46:00,53.5,52.1,30.12,NE,35,0.0,0.0,95,0.00,,CLR,0.00,VWS V14.01,2013-06-09 05:46:00,
2013-06-09 01:51:00,53.3,51.9,30.13,NE,36,0.0,0.0,95,0.00,,CLR,0.00,VWS V14.01,2013-06-09 05:51:00,
2013-06-09 01:56:00,53.3,52.2,30.12,NNW,335,0.0,0.0,96,0.00,,CLR,0.00,VWS V14.01,2013-06-09 05:56:00,
2013-06-09 02:00:00,54.2,52.8,30.12,West,280,1.0,2.0,95,0.00,,OVC,0.00,VWS V14.01,2013-06-09 06:00:00,
2013-06-09 02:01:00,53.8,52.7,30.12,NW,304,2.0,2.0,96,0.00,,CLR,0.00,VWS V14.01,2013-06-09 06:01:00,
2013-06-09 02:06:00,55.1,52.5,30.12,West,278,1.0,3.0,91,0.00,,CLR,0.00,VWS V14.01,2013-06-09 06:06:00,
2013-06-09 02:11:00,56.1,52.9,30.12,WSW,257,0.0,3.0,89,0.00,,CLR,0.00,VWS V14.01,2013-06-09 06:11:00,
2013-06-09 02:16:00,55.9,52.4,30.13,NW,311,0.0,3.0,88,0.00,,CLR,0.00,VWS V14.01,2013-06-09 06:16:00,
2013-06-09 02:21:00,55.6,52.4,30.13,NNW,328,1.0,3.0,89,0.00,,CLR,0.00,VWS V14.01,2013-06-09 06:21:00,
2013-06-09 02:26:00,55.4,52.5,30.13,NNW,327,0.0,3.0,90,0.00,,CLR,0.00,VWS V14.01,2013-06-09 06:26:00,
2013-06-09 02:30:00,54.6,51.4,30.13,SW,228,0.0,3.0,89,0.00,,OVC,0.00,VWS V14.01,2013-06-09 06:30:00,
2013-06-09 02:31:00,54.8,51.6,30.13,ESE,115,0.0,3.0,89,0.00,,CLR,0.00,VWS V14.01,2013-06-09 06:31:00,
2013-06-09 02:36:00,54.2,51.3,30.13,SW,228,0.0,0.0,90,0.00,,CLR,0.00,VWS V14.01,2013-06-09 06:36:00,
2013-06-09 02:41:00,53.8,51.2,30.13,SW,228,0.0,0.0,91,0.00,,CLR,0.00,VWS V14.01,2013-06-09 06:41:00,
2013-06-09 02:46:00,53.5,50.9,30.13,SW,228,0.0,0.0,91,0.00,,CLR,0.00,VWS V14.01,2013-06-09 06:46:00,
2013-06-09 02:52:00,53.8,52.1,30.13,West,273,0.0,0.0,94,0.00,,CLR,0.00,VWS V14.01,2013-06-09 06:52:00,
2013-06-09 02:57:00,54.2,52.5,30.13,West,269,0.0,0.0,94,0.00,,CLR,0.00,VWS V14.01,2013-06-09 06:57:00,
2013-06-09 03:00:00,54.3,52.3,30.13,West,269,0.0,0.0,93,0.00,,OVC,0.00,VWS V14.01,2013-06-09 07:00:00,
2013-06-09 03:02:00,54.4,52.4,30.13,West,269,0.0,0.0,93,0.00,,CLR,0.00,VWS V14.01,2013-06-09 07:02:00,
2013-06-09 03:07:00,54.1,51.8,30.13,West,269,0.0,0.0,92,0.00,,CLR,0.00,VWS V14.01,2013-06-09 07:07:00,
2013-06-09 03:12:00,53.7,51.4,30.13,West,269,0.0,0.0,92,0.00,,CLR,0.00,VWS V14.01,2013-06-09 07:12:00,
2013-06-09 03:17:00,53.2,50.9,30.13,West,269,0.0,0.0,92,0.00,,CLR,0.00,VWS V14.01,2013-06-09 07:17:00,
2013-06-09 03:22:00,52.8,50.8,30.13,West,269,0.0,0.0,93,0.00,,CLR,0.00,VWS V14.01,2013-06-09 07:22:00,
2013-06-09 03:27:00,52.5,50.5,30.14,West,269,0.0,0.0,93,0.00,,CLR,0.00,VWS V14.01,2013-06-09 07:27:00,
2013-06-09 03:30:00,52.6,50.9,30.14,West,259,0.0,0.0,94,0.00,,OVC,0.00,VWS V14.01,2013-06-09 07:30:00,
2013-06-09 03:32:00,52.6,50.9,30.14,West,259,0.0,0.0,94,0.00,,CLR,0.00,VWS V14.01,2013-06-09 07:32:00,
2013-06-09 03:37:00,52.8,51.4,30.14,NW,319,0.0,0.0,95,0.00,,CLR,0.00,VWS V14.01,2013-06-09 07:37:00,
2013-06-09 03:43:00,53.2,52.1,30.14,WSW,257,0.0,0.0,96,0.00,,CLR,0.00,VWS V14.01,2013-06-09 07:43:00,
2013-06-09 03:48:00,53.9,52.8,30.14,West,270,1.0,2.0,96,0.00,,CLR,0.00,VWS V14.01,2013-06-09 07:48:00,
2013-06-09 03:53:00,54.5,52.8,30.15,West,269,1.0,2.0,94,0.00,,CLR,0.00,VWS V14.01,2013-06-09 07:53:00,
2013-06-09 03:58:00,54.9,52.9,30.15,WSW,255,1.0,2.0,93,0.00,,CLR,0.00,VWS V14.01,2013-06-09 07:58:00,
2013-06-09 04:00:00,55.1,52.8,30.15,WSW,254,1.0,2.0,92,0.00,,OVC,0.00,VWS V14.01,2013-06-09 08:00:00,
2013-06-09 04:03:00,55.1,52.8,30.15,West,260,1.0,2.0,92,0.00,,CLR,0.00,VWS V14.01,2013-06-09 08:03:00,
2013-06-09 04:08:00,55.4,53.1,30.15,WSW,250,1.0,2.0,92,0.00,,CLR,0.00,VWS V14.01,2013-06-09 08:08:00,
2013-06-09 04:13:00,56.4,53.2,30.15,West,271,1.0,3.0,89,0.00,,CLR,0.00,VWS V14.01,2013-06-09 08:13:00,
2013-06-09 04:18:00,57.2,53.4,30.15,WSW,244,2.0,3.0,87,0.00,,CLR,0.00,VWS V14.01,2013-06-09 08:18:00,
2013-06-09 04:23:00,56.9,53.1,30.15,WSW,252,1.0,3.0,87,0.00,,CLR,0.00,VWS V14.01,2013-06-09 08:23:00,
2013-06-09 04:29:00,57.0,53.2,30.15,West,269,0.0,3.0,87,0.00,,CLR,0.00,VWS V14.01,2013-06-09 08:29:00,
2013-06-09 04:30:00,57.2,53.4,30.15,WSW,250,0.0,3.0,87,0.00,,OVC,0.00,VWS V14.01,2013-06-09 08:30:00,
2013-06-09 04:34:00,57.2,53.4,30.15,WSW,250,1.0,1.0,87,0.00,,CLR,0.00,VWS V14.01,2013-06-09 08:34:00,
2013-06-09 04:39:00,57.0,53.2,30.15,WSW,248,0.0,1.0,87,0.00,,CLR,0.00,VWS V14.01,2013-06-09 08:39:00,
2013-06-09 04:44:00,56.3,53.1,30.15,WSW,248,0.0,1.0,89,0.00,,CLR,0.00,VWS V14.01,2013-06-09 08:44:00,
2013-06-09 04:49:00,55.9,53.0,30.16,WSW,248,0.0,1.0,90,0.00,,SCT065,0.00,VWS V14.01,2013-06-09 08:49:00,
2013-06-09 04:54:00,55.5,52.6,30.16,SSW,193,0.0,1.0,90,0.00,,SCT065,0.00,VWS V14.01,2013-06-09 08:54:00,
2013-06-09 04:59:00,55.3,52.7,30.16,WSW,249,0.0,1.0,91,0.00,,SCT065,0.00,VWS V14.01,2013-06-09 08:59:00,
2013-06-09 05:00:00,55.0,52.4,30.16,WSW,249,0.0,1.0,91,0.00,,OVC,0.00,VWS V14.01,2013-06-09 09:00:00,
2013-06-09 05:04:00,55.0,52.4,30.16,WSW,249,0.0,0.0,91,0.00,,SCT065,0.00,VWS V14.01,2013-06-09 09:04:00,
2013-06-09 05:09:00,54.9,52.6,30.16,WSW,249,0.0,1.0,92,0.00,,SCT065,0.00,VWS V14.01,2013-06-09 09:09:00,
2013-06-09 05:14:00,55.0,53.0,30.17,West,266,0.0,1.0,93,0.00,,SCT065,0.00,VWS V14.01,2013-06-09 09:14:00,
2013-06-09 05:19:00,55.4,53.1,30.17,West,274,0.0,1.0,92,0.00,,SCT065,0.00,VWS V14.01,2013-06-09 09:19:00,
2013-06-09 05:24:00,56.0,53.1,30.17,WNW,283,0.0,1.0,90,0.00,,SCT065,0.00,VWS V14.01,2013-06-09 09:24:00,
2013-06-09 05:29:00,56.5,53.3,30.17,West,272,1.0,2.0,89,0.00,,SCT065,0.00,VWS V14.01,2013-06-09 09:29:00,
2013-06-09 05:30:00,56.9,53.4,30.17,West,262,2.0,2.0,88,0.00,,OVC,0.00,VWS V14.01,2013-06-09 09:30:00,
2013-06-09 05:34:00,57.0,53.2,30.17,West,269,1.0,2.0,87,0.00,,SCT065,0.00,VWS V14.01,2013-06-09 09:34:00,
2013-06-09 05:39:00,57.3,53.5,30.17,West,267,1.0,2.0,87,0.00,,SCT065,0.00,VWS V14.01,2013-06-09 09:39:00,
2013-06-09 05:44:00,57.5,53.3,30.17,West,275,0.0,2.0,86,0.00,,SCT065,0.00,VWS V14.01,2013-06-09 09:44:00,
2013-06-09 05:49:00,57.6,53.5,30.17,WNW,282,1.0,2.0,86,0.00,,BKN065,0.00,VWS V14.01,2013-06-09 09:49:00,
2013-06-09 05:54:00,57.6,53.5,30.18,WNW,290,2.0,3.0,86,0.00,,BKN065,0.00,VWS V14.01,2013-06-09 09:54:00,
2013-06-09 05:59:00,57.8,53.7,30.18,West,269,1.0,3.0,86,0.00,,BKN065,0.00,VWS V14.01,2013-06-09 09:59:00,
2013-06-09 06:00:00,57.8,53.3,30.18,West,269,1.0,3.0,85,0.00,,OVC,0.00,VWS V14.01,2013-06-09 10:00:00,
2013-06-09 06:05:00,57.8,53.7,30.18,West,274,0.0,2.0,86,0.00,,BKN065,0.00,VWS V14.01,2013-06-09 10:05:00,
2013-06-09 06:10:00,57.9,53.4,30.19,West,276,1.0,2.0,85,0.00,,BKN065,0.00,VWS V14.01,2013-06-09 10:10:00,
2013-06-09 06:15:00,57.9,53.4,30.19,West,278,1.0,2.0,85,0.00,,BKN065,0.00,VWS V14.01,2013-06-09 10:15:00,
2013-06-09 06:20:00,58.0,53.5,30.19,West,276,0.0,2.0,85,0.00,,BKN065,0.00,VWS V14.01,2013-06-09 10:20:00,
2013-06-09 06:25:00,58.1,53.6,30.19,West,278,2.0,2.0,85,0.00,,BKN065,0.00,VWS V14.01,2013-06-09 10:25:00,
2013-06-09 06:30:00,58.1,53.6,30.19,West,278,1.0,2.0,85,0.00,,BKN065,0.00,VWS V14.01,2013-06-09 10:30:00,
2013-06-09 06:35:00,58.3,53.8,30.19,West,271,1.0,1.0,85,0.00,,OVC065,0.00,VWS V14.01,2013-06-09 10:35:00,
2013-06-09 06:40:00,58.4,53.9,30.19,West,281,0.0,2.0,85,0.00,,OVC065,0.00,VWS V14.01,2013-06-09 10:40:00,
2013-06-09 06:45:00,58.4,53.9,30.19,West,275,1.0,2.0,85,0.00,,OVC065,0.00,VWS V14.01,2013-06-09 10:45:00,
2013-06-09 06:50:00,58.4,53.9,30.19,West,276,1.0,4.0,85,0.00,,OVC065,0.00,VWS V14.01,2013-06-09 10:50:00,
2013-06-09 06:55:00,58.5,53.7,30.20,West,273,0.0,4.0,84,0.00,,OVC065,0.00,VWS V14.01,2013-06-09 10:55:00,
2013-06-09 07:00:00,58.7,53.9,30.20,West,275,1.0,4.0,84,0.00,,OVC065,0.00,VWS V14.01,2013-06-09 11:00:00,
2013-06-09 07:06:00,59.0,54.2,30.20,West,270,0.0,1.0,84,0.00,,OVC065,0.00,VWS V14.01,2013-06-09 11:06:00,
2013-06-09 07:11:00,59.5,54.7,30.20,West,269,1.0,2.0,84,0.00,,OVC065,0.00,VWS V14.01,2013-06-09 11:11:00,
2013-06-09 07:16:00,59.9,54.7,30.20,WNW,283,0.0,2.0,83,0.00,,OVC065,0.00,VWS V14.01,2013-06-09 11:16:00,
2013-06-09 07:21:00,60.2,54.7,30.20,West,269,0.0,2.0,82,0.00,,OVC065,0.00,VWS V14.01,2013-06-09 11:21:00,
2013-06-09 07:26:00,60.5,55.0,30.20,WSW,246,0.0,2.0,82,0.00,,OVC065,0.00,VWS V14.01,2013-06-09 11:26:00,
2013-06-09 07:30:00,60.8,54.9,30.20,WSW,248,1.0,2.0,81,0.00,,OVC,0.00,VWS V14.01,2013-06-09 11:30:00,
2013-06-09 07:31:00,60.7,55.2,30.20,WSW,242,2.0,2.0,82,0.00,,OVC065,0.00,VWS V14.01,2013-06-09 11:31:00,
2013-06-09 07:36:00,61.0,55.8,30.20,West,263,0.0,2.0,83,0.00,,OVC065,0.00,VWS V14.01,2013-06-09 11:36:00,
2013-06-09 07:41:00,61.3,55.8,30.20,West,271,0.0,2.0,82,0.00,,OVC065,0.00,VWS V14.01,2013-06-09 11:41:00,
2013-06-09 07:46:00,61.6,56.1,30.21,West,260,1.0,2.0,82,0.00,,CLR,0.00,VWS V14.01,2013-06-09 11:46:00,
2013-06-09 07:51:00,61.7,55.8,30.20,WSW,245,1.0,3.0,81,0.00,,CLR,0.00,VWS V14.01,2013-06-09 11:51:00,
2013-06-09 07:56:00,61.8,55.2,30.21,West,262,1.0,3.0,79,0.00,,CLR,0.00,VWS V14.01,2013-06-09 11:56:00,
2013-06-09 08:00:00,62.2,56.0,30.21,West,267,1.0,3.0,80,0.00,,OVC,0.00,VWS V14.01,2013-06-09 12:00:00,
2013-06-09 08:01:00,62.1,56.2,30.21,West,271,2.0,3.0,81,0.00,,CLR,0.00,VWS V14.01,2013-06-09 12:01:00,
2013-06-09 08:07:00,62.3,55.7,30.21,West,269,0.0,1.0,79,0.00,,CLR,0.00,VWS V14.01,2013-06-09 12:07:00,
2013-06-09 08:12:00,62.8,56.2,30.21,WSW,253,1.0,2.0,79,0.00,,CLR,0.00,VWS V14.01,2013-06-09 12:12:00,
2013-06-09 08:17:00,63.0,56.7,30.21,West,260,0.0,2.0,80,0.00,,CLR,0.00,VWS V14.01,2013-06-09 12:17:00,
2013-06-09 08:22:00,63.2,56.2,30.21,WSW,256,1.0,3.0,78,0.00,,CLR,0.00,VWS V14.01,2013-06-09 12:22:00,
2013-06-09 08:27:00,63.2,56.2,30.21,WSW,256,2.0,3.0,78,0.00,,CLR,0.00,VWS V14.01,2013-06-09 12:27:00,
2013-06-09 08:30:00,63.6,56.6,30.21,West,272,0.0,3.0,78,0.00,,OVC,0.00,VWS V14.01,2013-06-09 12:30:00,
2013-06-09 08:32:00,63.6,56.6,30.21,West,273,1.0,3.0,78,0.00,,CLR,0.00,VWS V14.01,2013-06-09 12:32:00,
2013-06-09 08:37:00,63.9,56.2,30.21,West,281,1.0,2.0,76,0.00,,CLR,0.00,VWS V14.01,2013-06-09 12:37:00,
2013-06-09 08:42:00,64.2,56.8,30.21,WSW,248,0.0,2.0,77,0.00,,CLR,0.00,VWS V14.01,2013-06-09 12:42:00,
2013-06-09 08:47:00,64.6,56.9,30.22,West,281,0.0,3.0,76,0.00,,CLR,0.00,VWS V14.01,2013-06-09 12:47:00,
2013-06-09 08:52:00,65.1,56.2,30.22,West,269,1.0,3.0,73,0.00,,CLR,0.00,VWS V14.01,2013-06-09 12:52:00,
2013-06-09 08:57:00,65.1,56.2,30.22,WSW,238,1.0,3.0,73,0.00,,CLR,0.00,VWS V14.01,2013-06-09 12:57:00,
2013-06-09 09:00:00,65.5,57.4,30.22,West,259,1.0,3.0,75,0.00,,OVC,0.00,VWS V14.01,2013-06-09 13:00:00,
2013-06-09 09:03:00,65.5,57.4,30.22,West,259,1.0,3.0,75,0.00,,CLR,0.00,VWS V14.01,2013-06-09 13:03:00,
2013-06-09 09:08:00,65.8,56.5,30.22,West,259,1.0,2.0,72,0.00,,CLR,0.00,VWS V14.01,2013-06-09 13:08:00,
2013-06-09 09:13:00,66.0,56.7,30.22,WSW,242,1.0,2.0,72,0.00,,CLR,0.00,VWS V14.01,2013-06-09 13:13:00,
2013-06-09 09:18:00,66.4,57.1,30.22,West,267,1.0,2.0,72,0.00,,CLR,0.00,VWS V14.01,2013-06-09 13:18:00,
2013-06-09 09:23:00,66.7,56.2,30.22,NNW,331,1.0,2.0,69,0.00,,CLR,0.00,VWS V14.01,2013-06-09 13:23:00,
2013-06-09 09:28:00,67.1,55.4,30.22,West,269,1.0,2.0,66,0.00,,CLR,0.00,VWS V14.01,2013-06-09 13:28:00,
2013-06-09 09:30:00,67.3,55.6,30.22,West,273,1.0,2.0,66,0.00,,OVC,0.00,VWS V14.01,2013-06-09 13:30:00,
2013-06-09 09:33:00,67.3,56.0,30.22,WNW,284,1.0,1.0,67,0.00,,CLR,0.00,VWS V14.01,2013-06-09 13:33:00,
2013-06-09 09:38:00,67.5,56.6,30.22,West,277,1.0,3.0,68,0.00,,CLR,0.00,VWS V14.01,2013-06-09 13:38:00,
2013-06-09 09:44:00,67.3,55.6,30.22,North,9,0.0,4.0,66,0.00,,CLR,0.00,VWS V14.01,2013-06-09 13:44:00,
2013-06-09 09:49:00,67.7,56.0,30.22,SE,126,1.0,4.0,66,0.00,,CLR,0.00,VWS V14.01,2013-06-09 13:49:00,
2013-06-09 09:54:00,67.5,55.3,30.22,West,277,0.0,4.0,65,0.00,,CLR,0.00,VWS V14.01,2013-06-09 13:54:00,
2013-06-09 09:59:00,67.6,57.1,30.22,East,79,1.0,4.0,69,0.00,,CLR,0.00,VWS V14.01,2013-06-09 13:59:00,
2013-06-09 10:00:00,68.1,56.7,30.22,West,269,0.0,4.0,67,0.00,,OVC,0.00,VWS V14.01,2013-06-09 14:00:00,
2013-06-09 10:04:00,68.2,56.4,30.22,NE,41,4.0,4.0,66,0.00,,CLR,0.00,VWS V14.01,2013-06-09 14:04:00,
2013-06-09 10:09:00,67.9,56.5,30.22,WSW,253,1.0,4.0,67,0.00,,CLR,0.00,VWS V14.01,2013-06-09 14:09:00,
2013-06-09 10:14:00,68.1,57.6,30.22,West,262,1.0,4.0,69,0.00,,CLR,0.00,VWS V14.01,2013-06-09 14:14:00,
2013-06-09 10:19:00,68.5,56.3,30.22,SSW,200,1.0,4.0,65,0.00,,CLR,0.00,VWS V14.01,2013-06-09 14:19:00,
2013-06-09 10:24:00,68.9,56.2,30.22,WSW,250,0.0,4.0,64,0.00,,CLR,0.00,VWS V14.01,2013-06-09 14:24:00,
2013-06-09 10:29:00,69.7,57.8,30.22,SE,131,0.0,4.0,66,0.00,,CLR,0.00,VWS V14.01,2013-06-09 14:29:00,
2013-06-09 10:30:00,69.8,57.5,30.22,WSW,256,1.0,4.0,65,0.00,,OVC,0.00,VWS V14.01,2013-06-09 14:30:00,
2013-06-09 10:34:00,69.5,56.8,30.22,WSW,250,0.0,1.0,64,0.00,,CLR,0.00,VWS V14.01,2013-06-09 14:34:00,
2013-06-09 10:40:00,69.4,56.7,30.22,WSW,242,0.0,2.0,64,0.00,,CLR,0.00,VWS V14.01,2013-06-09 14:40:00,
2013-06-09 10:45:00,69.4,56.3,30.22,West,261,1.0,3.0,63,0.00,,CLR,0.00,VWS V14.01,2013-06-09 14:45:00,
2013-06-09 10:50:00,70.0,57.7,30.22,NW,305,2.0,3.0,65,0.00,,CLR,0.00,VWS V14.01,2013-06-09 14:50:00,
2013-06-09 10:55:00,70.3,57.6,30.22,WSW,257,0.0,3.0,64,0.00,,CLR,0.00,VWS V14.01,2013-06-09 14:55:00,
2013-06-09 11:00:00,70.2,57.9,30.22,NNE,12,3.0,3.0,65,0.00,,CLR,0.00,VWS V14.01,2013-06-09 15:00:00,
2013-06-09 11:05:00,70.7,59.2,30.22,WSW,253,3.0,3.0,67,0.00,,CLR,0.00,VWS V14.01,2013-06-09 15:05:00,
2013-06-09 11:10:00,70.6,57.8,30.22,North,349,2.0,3.0,64,0.00,,CLR,0.00,VWS V14.01,2013-06-09 15:10:00,
2013-06-09 11:15:00,70.1,56.5,30.22,West,274,2.0,4.0,62,0.00,,CLR,0.00,VWS V14.01,2013-06-09 15:15:00,
2013-06-09 11:20:00,69.3,57.0,30.22,NNW,330,1.0,4.0,65,0.00,,CLR,0.00,VWS V14.01,2013-06-09 15:20:00,
2013-06-09 11:25:00,70.0,57.3,30.22,NNW,346,0.0,4.0,64,0.00,,CLR,0.00,VWS V14.01,2013-06-09 15:25:00,
2013-06-09 11:30:00,70.1,57.8,30.22,WSW,252,1.0,4.0,65,0.00,,CLR,0.00,VWS V14.01,2013-06-09 15:30:00,
2013-06-09 11:35:00,70.3,57.6,30.22,ESE,118,3.0,3.0,64,0.00,,CLR,0.00,VWS V14.01,2013-06-09 15:35:00,
2013-06-09 11:40:00,70.6,56.5,30.22,WNW,287,2.0,3.0,61,0.00,,CLR,0.00,VWS V14.01,2013-06-09 15:40:00,
2013-06-09 11:46:00,70.4,57.7,30.22,East,96,0.0,4.0,64,0.00,,FEW036,0.00,VWS V14.01,2013-06-09 15:46:00,
2013-06-09 11:51:00,71.0,58.7,30.22,WNW,302,2.0,4.0,65,0.00,,FEW036,0.00,VWS V14.01,2013-06-09 15:51:00,
2013-06-09 11:56:00,71.2,60.1,30.22,NNW,340,1.0,4.0,68,0.00,,FEW036,0.00,VWS V14.01,2013-06-09 15:56:00,
2013-06-09 12:00:00,71.8,57.6,30.22,NW,323,0.0,4.0,61,0.00,,OVC,0.00,VWS V14.01,2013-06-09 16:00:00,
2013-06-09 12:02:00,71.8,57.6,30.22,NW,316,1.0,4.0,61,0.00,,FEW036,0.00,VWS V14.01,2013-06-09 16:02:00,
2013-06-09 12:07:00,72.1,57.5,30.22,SE,135,0.0,3.0,60,0.00,,FEW036,0.00,VWS V14.01,2013-06-09 16:07:00,
2013-06-09 12:12:00,71.7,56.2,30.22,SE,126,1.0,4.0,58,0.00,,FEW036,0.00,VWS V14.01,2013-06-09 16:12:00,
2013-06-09 12:17:00,71.4,56.8,30.22,WSW,250,1.0,4.0,60,0.00,,FEW036,0.00,VWS V14.01,2013-06-09 16:17:00,
2013-06-09 12:22:00,70.9,56.3,30.22,WSW,250,2.0,6.0,60,0.00,,FEW036,0.00,VWS V14.01,2013-06-09 16:22:00,
2013-06-09 12:27:00,70.6,56.1,30.22,WNW,295,1.0,6.0,60,0.00,,FEW036,0.00,VWS V14.01,2013-06-09 16:27:00,
2013-06-09 12:30:00,70.5,56.0,30.22,NE,39,1.0,6.0,60,0.00,,OVC,0.00,VWS V14.01,2013-06-09 16:30:00,
2013-06-09 12:33:00,70.5,56.0,30.22,NE,39,1.0,6.0,60,0.00,,FEW036,0.00,VWS V14.01,2013-06-09 16:33:00,
2013-06-09 12:38:00,70.7,55.7,30.22,SSE,152,0.0,3.0,59,0.00,,FEW036,0.00,VWS V14.01,2013-06-09 16:38:00,
2013-06-09 12:43:00,71.0,56.0,30.22,NNW,345,1.0,3.0,59,0.00,,FEW036,0.00,VWS V14.01,2013-06-09 16:43:00,
2013-06-09 12:48:00,71.2,56.2,30.21,SW,236,0.0,4.0,59,0.00,,BKN038,0.00,VWS V14.01,2013-06-09 16:48:00,
2013-06-09 12:53:00,72.0,56.9,30.21,NNE,32,2.0,4.0,59,0.00,,BKN038,0.00,VWS V14.01,2013-06-09 16:53:00,
2013-06-09 12:58:00,72.0,55.5,30.21,SE,134,2.0,4.0,56,0.00,,BKN038,0.00,VWS V14.01,2013-06-09 16:58:00,
2013-06-09 13:00:00,72.5,60.1,30.21,West,270,1.0,4.0,65,0.00,,OVC,0.00,VWS V14.01,2013-06-09 17:00:00,
2013-06-09 13:03:00,72.6,60.2,30.21,NNW,338,3.0,3.0,65,0.00,,BKN038,0.00,VWS V14.01,2013-06-09 17:03:00,
2013-06-09 13:08:00,72.7,58.0,30.21,ESE,113,1.0,3.0,60,0.00,,BKN038,0.00,VWS V14.01,2013-06-09 17:08:00,
2013-06-09 13:13:00,72.1,56.0,30.21,WSW,256,2.0,4.0,57,0.00,,BKN038,0.00,VWS V14.01,2013-06-09 17:13:00,
2013-06-09 13:18:00,71.4,56.3,30.21,NW,316,0.0,4.0,59,0.00,,BKN038,0.00,VWS V14.01,2013-06-09 17:18:00,
2013-06-09 13:23:00,71.7,58.9,30.21,North,4,1.0,4.0,64,0.00,,BKN038,0.00,VWS V14.01,2013-06-09 17:23:00,
2013-06-09 13:29:00,72.6,58.4,30.21,NW,322,0.0,4.0,61,0.00,,BKN038,0.00,VWS V14.01,2013-06-09 17:29:00,
2013-06-09 13:30:00,72.6,57.0,30.20,South,173,0.0,4.0,58,0.00,,OVC,0.00,VWS V14.01,2013-06-09 17:30:00,
2013-06-09 13:34:00,72.6,58.4,30.21,NE,55,2.0,3.0,61,0.00,,FEW042,0.00,VWS V14.01,2013-06-09 17:34:00,
2013-06-09 13:39:00,72.6,56.0,30.20,SSW,210,2.0,3.0,56,0.00,,FEW042,0.00,VWS V14.01,2013-06-09 17:39:00,
2013-06-09 13:44:00,73.0,57.8,30.20,NNW,345,1.0,3.0,59,0.00,,FEW042,0.00,VWS V14.01,2013-06-09 17:44:00,
2013-06-09 13:49:00,72.5,55.4,30.20,North,8,0.0,4.0,55,0.00,,FEW042,0.00,VWS V14.01,2013-06-09 17:49:00,
2013-06-09 13:54:00,72.4,57.3,30.20,ESE,116,1.0,4.0,59,0.00,,FEW042,0.00,VWS V14.01,2013-06-09 17:54:00,
2013-06-09 13:59:00,72.2,55.2,30.20,West,281,2.0,4.0,55,0.00,,FEW042,0.00,VWS V14.01,2013-06-09 17:59:00,
2013-06-09 14:00:00,71.7,54.7,30.20,NNW,346,1.0,4.0,55,0.00,,OVC,0.00,VWS V14.01,2013-06-09 18:00:00,
2013-06-09 14:04:00,71.6,55.1,30.20,North,5,0.0,2.0,56,0.00,,FEW042,0.00,VWS V14.01,2013-06-09 18:04:00,
2013-06-09 14:09:00,71.7,58.0,30.20,SE,134,2.0,4.0,62,0.00,,FEW042,0.00,VWS V14.01,2013-06-09 18:09:00,
2013-06-09 14:14:00,71.9,57.3,30.20,East,94,1.0,4.0,60,0.00,,FEW042,0.00,VWS V14.01,2013-06-09 18:14:00,
2013-06-09 14:19:00,71.7,57.1,30.20,East,90,2.0,4.0,60,0.00,,FEW042,0.00,VWS V14.01,2013-06-09 18:19:00,
2013-06-09 14:24:00,72.0,59.2,30.20,East,84,1.0,4.0,64,0.00,,FEW042,0.00,VWS V14.01,2013-06-09 18:24:00,
2013-06-09 14:29:00,71.2,55.7,30.20,ESE,105,0.0,4.0,58,0.00,,FEW042,0.00,VWS V14.01,2013-06-09 18:29:00,
2013-06-09 14:30:00,71.0,56.0,30.20,North,11,0.0,4.0,59,0.00,,OVC,0.00,VWS V14.01,2013-06-09 18:30:00,
2013-06-09 14:35:00,70.8,56.7,30.20,NE,44,0.0,0.0,61,0.00,,FEW042,0.00,VWS V14.01,2013-06-09 18:35:00,
2013-06-09 14:40:00,70.3,55.8,30.20,NNW,346,0.0,0.0,60,0.00,,FEW042,0.00,VWS V14.01,2013-06-09 18:40:00,
2013-06-09 14:45:00,70.1,55.6,30.20,North,1,0.0,2.0,60,0.00,,SCT040,0.00,VWS V14.01,2013-06-09 18:45:00,
2013-06-09 14:50:00,70.4,56.3,30.20,NW,312,0.0,2.0,61,0.00,,SCT040,0.00,VWS V14.01,2013-06-09 18:50:00,
2013-06-09 14:55:00,71.1,57.4,30.20,NE,44,1.0,3.0,62,0.00,,SCT040,0.00,VWS V14.01,2013-06-09 18:55:00,
2013-06-09 15:00:00,71.1,55.6,30.20,SE,125,1.0,3.0,58,0.00,,SCT040,0.00,VWS V14.01,2013-06-09 19:00:00,
2013-06-09 15:05:00,71.1,57.0,30.19,SE,134,1.0,1.0,61,0.00,,SCT040,0.00,VWS V14.01,2013-06-09 19:05:00,
2013-06-09 15:10:00,71.1,57.0,30.19,NNW,330,1.0,4.0,61,0.00,,SCT040,0.00,VWS V14.01,2013-06-09 19:10:00,
2013-06-09 15:15:00,71.1,56.5,30.19,West,259,0.0,4.0,60,0.00,,SCT040,0.00,VWS V14.01,2013-06-09 19:15:00,
2013-06-09 15:20:00,71.4,58.6,30.20,NNE,20,3.0,4.0,64,0.00,,SCT040,0.00,VWS V14.01,2013-06-09 19:20:00,
2013-06-09 15:25:00,71.4,56.3,30.19,East,98,0.0,4.0,59,0.00,,SCT040,0.00,VWS V14.01,2013-06-09 19:25:00,
2013-06-09 15:30:00,71.4,55.4,30.19,SSE,161,0.0,4.0,57,0.00,,SCT040,0.00,VWS V14.01,2013-06-09 19:30:00,
2013-06-09 15:35:00,71.6,57.5,30.19,WSW,245,0.0,2.0,61,0.00,,BKN047,0.00,VWS V14.01,2013-06-09 19:35:00,
2013-06-09 15:40:00,71.7,56.2,30.19,NNE,21,0.0,2.0,58,0.00,,BKN047,0.00,VWS V14.01,2013-06-09 19:40:00,
2013-06-09 15:45:00,71.8,56.2,30.19,ESE,123,0.0,3.0,58,0.00,,BKN047,0.00,VWS V14.01,2013-06-09 19:45:00,
2013-06-09 15:50:00,71.7,54.7,30.19,SW,224,1.0,3.0,55,0.00,,BKN047,0.00,VWS V14.01,2013-06-09 19:50:00,
2013-06-09 15:55:00,72.0,56.4,30.18,East,89,2.0,3.0,58,0.00,,BKN047,0.00,VWS V14.01,2013-06-09 19:55:00,
2013-06-09 16:00:00,72.0,55.0,30.18,WNW,302,1.0,4.0,55,0.00,,OVC,0.00,VWS V14.01,2013-06-09 20:00:00,
2013-06-09 16:01:00,72.1,55.1,30.18,NW,308,1.0,3.0,55,0.00,,BKN047,0.00,VWS V14.01,2013-06-09 20:01:00,
2013-06-09 16:06:00,71.9,54.4,30.18,NW,316,2.0,3.0,54,0.00,,BKN047,0.00,VWS V14.01,2013-06-09 20:06:00,
2013-06-09 16:11:00,71.8,55.3,30.18,NE,46,2.0,3.0,56,0.00,,BKN047,0.00,VWS V14.01,2013-06-09 20:11:00,
2013-06-09 16:16:00,71.9,55.9,30.17,WSW,257,0.0,3.0,57,0.00,,BKN047,0.00,VWS V14.01,2013-06-09 20:16:00,
2013-06-09 16:21:00,72.1,55.6,30.17,ESE,115,0.0,3.0,56,0.00,,BKN047,0.00,VWS V14.01,2013-06-09 20:21:00,
2013-06-09 16:26:00,72.2,56.1,30.17,North,349,0.0,3.0,57,0.00,,BKN047,0.00,VWS V14.01,2013-06-09 20:26:00,
2013-06-09 16:30:00,72.3,57.2,30.17,NNE,23,0.0,3.0,59,0.00,,OVC,0.00,VWS V14.01,2013-06-09 20:30:00,
2013-06-09 16:31:00,72.3,57.2,30.17,NNE,23,1.0,3.0,59,0.00,,BKN047,0.00,VWS V14.01,2013-06-09 20:31:00,
2013-06-09 16:37:00,72.4,55.8,30.17,ESE,106,1.0,2.0,56,0.00,,SCT041,0.00,VWS V14.01,2013-06-09 20:37:00,
2013-06-09 16:42:00,72.5,56.4,30.17,ESE,110,2.0,2.0,57,0.00,,SCT041,0.00,VWS V14.01,2013-06-09 20:42:00,
2013-06-09 16:47:00,72.6,55.5,30.17,SSE,158,0.0,3.0,55,0.00,,SCT041,0.00,VWS V14.01,2013-06-09 20:47:00,
2013-06-09 16:52:00,72.6,55.5,30.17,ESE,104,1.0,4.0,55,0.00,,SCT041,0.00,VWS V14.01,2013-06-09 20:52:00,
2013-06-09 16:57:00,72.4,55.3,30.17,SW,215,1.0,4.0,55,0.00,,SCT041,0.00,VWS V14.01,2013-06-09 20:57:00,
2013-06-09 17:00:00,72.6,55.5,30.17,ESE,118,0.0,4.0,55,0.00,,OVC,0.00,VWS V14.01,2013-06-09 21:00:00,
2013-06-09 17:02:00,72.6,56.0,30.17,SE,135,0.0,4.0,56,0.00,,SCT041,0.00,VWS V14.01,2013-06-09 21:02:00,
2013-06-09 17:07:00,72.7,56.1,30.17,North,360,2.0,2.0,56,0.00,,SCT041,0.00,VWS V14.01,2013-06-09 21:07:00,
2013-06-09 17:12:00,72.6,57.0,30.17,NNE,20,0.0,2.0,58,0.00,,SCT041,0.00,VWS V14.01,2013-06-09 21:12:00,
2013-06-09 17:17:00,72.8,56.7,30.17,South,184,2.0,4.0,57,0.00,,SCT041,0.00,VWS V14.01,2013-06-09 21:17:00,
2013-06-09 17:23:00,72.6,57.0,30.17,ESE,110,2.0,7.0,58,0.00,,SCT041,0.00,VWS V14.01,2013-06-09 21:23:00,
2013-06-09 17:28:00,72.4,57.3,30.17,SSW,208,1.0,7.0,59,0.00,,SCT041,0.00,VWS V14.01,2013-06-09 21:28:00,
2013-06-09 17:30:00,72.4,58.7,30.17,ESE,118,1.0,7.0,62,0.00,,OVC,0.00,VWS V14.01,2013-06-09 21:30:00,
2013-06-09 17:33:00,72.4,58.7,30.17,ESE,118,1.0,7.0,62,0.00,,CLR,0.00,VWS V14.01,2013-06-09 21:33:00,
2013-06-09 17:38:00,72.4,59.1,30.16,ESE,123,1.0,4.0,63,0.00,,CLR,0.00,VWS V14.01,2013-06-09 21:38:00,
2013-06-09 17:43:00,72.3,58.1,30.16,SSW,201,1.0,4.0,61,0.00,,CLR,0.00,VWS V14.01,2013-06-09 21:43:00,
2013-06-09 17:48:00,72.3,56.7,30.17,ESE,122,2.0,4.0,58,0.00,,CLR,0.00,VWS V14.01,2013-06-09 21:48:00,
2013-06-09 17:53:00,72.2,56.6,30.16,SE,134,0.0,4.0,58,0.00,,CLR,0.00,VWS V14.01,2013-06-09 21:53:00,
2013-06-09 17:58:00,72.2,57.1,30.16,South,185,1.0,4.0,59,0.00,,CLR,0.00,VWS V14.01,2013-06-09 21:58:00,
2013-06-09 18:00:00,72.3,57.7,30.16,East,91,0.0,4.0,60,0.00,,OVC,0.00,VWS V14.01,2013-06-09 22:00:00,
2013-06-09 18:03:00,72.3,57.7,30.16,SE,125,0.0,1.0,60,0.00,,CLR,0.00,VWS V14.01,2013-06-09 22:03:00,
2013-06-09 18:08:00,72.6,58.4,30.16,East,101,1.0,2.0,61,0.00,,CLR,0.00,VWS V14.01,2013-06-09 22:08:00,
2013-06-09 18:14:00,72.6,57.9,30.16,SSE,148,5.0,5.0,60,0.00,,CLR,0.00,VWS V14.01,2013-06-09 22:14:00,
2013-06-09 18:19:00,72.4,58.2,30.16,SE,124,3.0,5.0,61,0.00,,CLR,0.00,VWS V14.01,2013-06-09 22:19:00,
2013-06-09 18:24:00,72.3,59.0,30.16,East,79,1.0,6.0,63,0.00,,CLR,0.00,VWS V14.01,2013-06-09 22:24:00,
2013-06-09 18:29:00,72.0,56.9,30.17,SE,129,4.0,6.0,59,0.00,,CLR,0.00,VWS V14.01,2013-06-09 22:29:00,
2013-06-09 18:30:00,71.7,57.5,30.17,ESE,123,3.0,6.0,61,0.00,,OVC,0.00,VWS V14.01,2013-06-09 22:30:00,
2013-06-09 18:34:00,71.7,57.5,30.17,SE,128,3.0,4.0,61,0.00,,CLR,0.00,VWS V14.01,2013-06-09 22:34:00,
2013-06-09 18:39:00,71.6,57.5,30.17,ESE,116,2.0,4.0,61,0.00,,CLR,0.00,VWS V14.01,2013-06-09 22:39:00,
2013-06-09 18:44:00,71.6,57.5,30.17,ESE,115,3.0,4.0,61,0.00,,CLR,0.00,VWS V14.01,2013-06-09 22:44:00,
2013-06-09 18:49:00,71.7,57.5,30.17,ESE,123,2.0,4.0,61,0.00,,CLR,0.00,VWS V14.01,2013-06-09 22:49:00,
2013-06-09 18:55:00,71.7,57.5,30.17,SE,128,1.0,4.0,61,0.00,,CLR,0.00,VWS V14.01,2013-06-09 22:55:00,
2013-06-09 19:00:00,71.7,58.0,30.17,SE,131,2.0,4.0,62,0.00,,CLR,0.00,VWS V14.01,2013-06-09 23:00:00,
2013-06-09 19:05:00,71.6,57.5,30.17,ESE,118,2.0,3.0,61,0.00,,CLR,0.00,VWS V14.01,2013-06-09 23:05:00,
2013-06-09 19:10:00,71.5,57.4,30.17,South,177,0.0,4.0,61,0.00,,CLR,0.00,VWS V14.01,2013-06-09 23:10:00,
2013-06-09 19:15:00,71.6,57.9,30.17,ESE,118,0.0,4.0,62,0.00,,CLR,0.00,VWS V14.01,2013-06-09 23:15:00,
2013-06-09 19:20:00,71.5,57.4,30.17,SSE,151,0.0,4.0,61,0.00,,CLR,0.00,VWS V14.01,2013-06-09 23:20:00,
2013-06-09 19:25:00,71.1,57.0,30.17,ESE,121,1.0,4.0,61,0.00,,CLR,0.00,VWS V14.01,2013-06-09 23:25:00,
2013-06-09 19:30:00,70.7,57.5,30.17,SE,125,3.0,4.0,63,0.00,,CLR,0.00,VWS V14.01,2013-06-09 23:30:00,
2013-06-09 19:35:00,70.2,57.5,30.18,SSE,150,0.0,3.0,64,0.00,,CLR,0.00,VWS V14.01,2013-06-09 23:35:00,
2013-06-09 19:40:00,69.7,57.0,30.17,SE,136,1.0,3.0,64,0.00,,CLR,0.00,VWS V14.01,2013-06-09 23:40:00,
2013-06-09 19:45:00,69.4,57.6,30.18,ESE,104,0.0,3.0,66,0.00,,CLR,0.00,VWS V14.01,2013-06-09 23:45:00,
2013-06-09 19:50:00,68.8,57.8,30.17,East,82,0.0,3.0,68,0.00,,CLR,0.00,VWS V14.01,2013-06-09 23:50:00,
2013-06-09 19:55:00,68.3,58.5,30.17,East,83,0.0,3.0,71,0.00,,CLR,0.00,VWS V14.01,2013-06-09 23:55:00,
2013-06-09 20:00:00,67.5,58.2,30.17,East,84,0.0,3.0,72,0.00,,OVC,0.00,VWS V14.01,2013-06-10 00:00:00,
2013-06-09 20:01:00,67.7,58.4,30.17,East,86,0.0,3.0,72,0.00,,CLR,0.00,VWS V14.01,2013-06-10 00:01:00,
2013-06-09 20:06:00,67.3,58.4,30.17,East,84,0.0,0.0,73,0.00,,CLR,0.00,VWS V14.01,2013-06-10 00:06:00,
2013-06-09 20:11:00,66.7,58.2,30.17,East,84,0.0,0.0,74,0.00,,CLR,0.00,VWS V14.01,2013-06-10 00:11:00,
2013-06-09 20:16:00,66.3,57.4,30.17,East,84,0.0,0.0,73,0.00,,CLR,0.00,VWS V14.01,2013-06-10 00:16:00,
2013-06-09 20:21:00,66.0,57.5,30.17,East,84,0.0,0.0,74,0.00,,CLR,0.00,VWS V14.01,2013-06-10 00:21:00,
2013-06-09 20:27:00,65.7,57.2,30.17,East,84,0.0,0.0,74,0.00,,CLR,0.00,VWS V14.01,2013-06-10 00:27:00,
2013-06-09 20:30:00,65.4,56.9,30.17,East,84,0.0,0.0,74,0.00,,OVC,0.00,VWS V14.01,2013-06-10 00:30:00,
2013-06-09 20:32:00,65.4,56.9,30.17,East,83,0.0,0.0,74,0.00,,CLR,0.00,VWS V14.01,2013-06-10 00:32:00,
2013-06-09 20:37:00,65.2,56.7,30.17,East,86,0.0,1.0,74,0.00,,CLR,0.00,VWS V14.01,2013-06-10 00:37:00,
2013-06-09 20:42:00,64.9,56.8,30.17,East,84,0.0,1.0,75,0.00,,CLR,0.00,VWS V14.01,2013-06-10 00:42:00,
2013-06-09 20:47:00,64.7,57.0,30.17,East,83,0.0,1.0,76,0.00,,CLR,0.00,VWS V14.01,2013-06-10 00:47:00,
2013-06-09 20:52:00,64.4,56.7,30.17,East,83,0.0,1.0,76,0.00,,CLR,0.00,VWS V14.01,2013-06-10 00:52:00,
2013-06-09 20:57:00,64.2,56.8,30.18,East,84,0.0,1.0,77,0.00,,CLR,0.00,VWS V14.01,2013-06-10 00:57:00,
2013-06-09 21:00:00,64.0,56.7,30.18,East,83,0.0,1.0,77,0.00,,OVC,0.00,VWS V14.01,2013-06-10 01:00:00,
2013-06-09 21:02:00,64.0,56.7,30.18,East,83,0.0,1.0,77,0.00,,CLR,0.00,VWS V14.01,2013-06-10 01:02:00,
2013-06-09 21:07:00,63.7,56.7,30.18,East,83,0.0,0.0,78,0.00,,CLR,0.00,VWS V14.01,2013-06-10 01:07:00,
2013-06-09 21:12:00,63.2,56.9,30.18,ENE,64,0.0,1.0,80,0.00,,CLR,0.00,VWS V14.01,2013-06-10 01:12:00,
2013-06-09 21:17:00,62.9,57.0,30.18,ENE,64,0.0,1.0,81,0.00,,CLR,0.00,VWS V14.01,2013-06-10 01:17:00,
2013-06-09 21:23:00,62.6,56.7,30.18,ENE,64,0.0,1.0,81,0.00,,CLR,0.00,VWS V14.01,2013-06-10 01:23:00,
2013-06-09 21:28:00,62.6,56.7,30.18,ENE,64,0.0,1.0,81,0.00,,CLR,0.00,VWS V14.01,2013-06-10 01:28:00,
2013-06-09 21:30:00,62.7,56.8,30.18,ENE,64,0.0,1.0,81,0.00,,OVC,0.00,VWS V14.01,2013-06-10 01:30:00,
2013-06-09 21:33:00,62.6,56.7,30.18,ENE,64,0.0,0.0,81,0.00,,CLR,0.00,VWS V14.01,2013-06-10 01:33:00,
2013-06-09 21:38:00,62.6,56.7,30.18,ENE,64,0.0,1.0,81,0.00,,CLR,0.00,VWS V14.01,2013-06-10 01:38:00,
2013-06-09 21:43:00,62.5,56.6,30.18,NE,47,0.0,1.0,81,0.00,,CLR,0.00,VWS V14.01,2013-06-10 01:43:00,
2013-06-09 21:48:00,62.4,56.5,30.18,NE,47,0.0,1.0,81,0.00,,CLR,0.00,VWS V14.01,2013-06-10 01:48:00,
2013-06-09 21:53:00,62.2,57.0,30.18,NE,47,0.0,1.0,83,0.00,,CLR,0.00,VWS V14.01,2013-06-10 01:53:00,
2013-06-09 21:58:00,61.7,56.5,30.19,NE,47,0.0,1.0,83,0.00,,CLR,0.00,VWS V14.01,2013-06-10 01:58:00,
2013-06-09 22:00:00,61.3,56.8,30.19,NE,46,0.0,1.0,85,0.00,,OVC,0.00,VWS V14.01,2013-06-10 02:00:00,
2013-06-09 22:04:00,61.2,56.7,30.19,NE,47,0.0,0.0,85,0.00,,CLR,0.00,VWS V14.01,2013-06-10 02:04:00,
2013-06-09 22:09:00,60.8,56.3,30.19,NE,47,0.0,0.0,85,0.00,,CLR,0.00,VWS V14.01,2013-06-10 02:09:00,
2013-06-09 22:14:00,60.6,56.1,30.19,NE,47,0.0,0.0,85,0.00,,CLR,0.00,VWS V14.01,2013-06-10 02:14:00,
2013-06-09 22:19:00,60.6,56.1,30.19,NE,47,0.0,1.0,85,0.00,,CLR,0.00,VWS V14.01,2013-06-10 02:19:00,
2013-06-09 22:24:00,60.6,56.1,30.19,NE,46,0.0,1.0,85,0.00,,CLR,0.00,VWS V14.01,2013-06-10 02:24:00,
2013-06-09 22:29:00,60.5,56.0,30.19,NE,47,0.0,1.0,85,0.00,,CLR,0.00,VWS V14.01,2013-06-10 02:29:00,
2013-06-09 22:30:00,60.5,56.0,30.19,NE,47,0.0,1.0,85,0.00,,OVC,0.00,VWS V14.01,2013-06-10 02:30:00,
2013-06-09 22:34:00,60.5,56.3,30.19,NE,48,0.0,0.0,86,0.00,,CLR,0.00,VWS V14.01,2013-06-10 02:34:00,
2013-06-09 22:39:00,60.1,56.2,30.19,NE,47,0.0,0.0,87,0.00,,CLR,0.00,VWS V14.01,2013-06-10 02:39:00,
2013-06-09 22:44:00,59.8,56.2,30.19,NE,47,0.0,0.0,88,0.00,,CLR,0.00,VWS V14.01,2013-06-10 02:44:00,
2013-06-09 22:49:00,59.5,56.3,30.19,NE,47,0.0,0.0,89,0.00,,CLR,0.00,VWS V14.01,2013-06-10 02:49:00,
2013-06-09 22:54:00,59.3,56.1,30.19,NE,47,0.0,0.0,89,0.00,,CLR,0.00,VWS V14.01,2013-06-10 02:54:00,
2013-06-09 23:00:00,59.2,56.0,30.19,NE,48,0.0,0.0,89,0.00,,CLR,0.00,VWS V14.01,2013-06-10 03:00:00,
2013-06-09 23:05:00,59.2,56.0,30.19,NE,47,0.0,0.0,89,0.00,,CLR,0.00,VWS V14.01,2013-06-10 03:05:00,
2013-06-09 23:10:00,59.1,55.9,30.19,NE,47,0.0,0.0,89,0.00,,CLR,0.00,VWS V14.01,2013-06-10 03:10:00,
2013-06-09 23:15:00,59.1,55.9,30.18,NE,47,0.0,0.0,89,0.00,,CLR,0.00,VWS V14.01,2013-06-10 03:15:00,
2013-06-09 23:20:00,59.0,55.8,30.18,NE,46,0.0,0.0,89,0.00,,CLR,0.00,VWS V14.01,2013-06-10 03:20:00,
2013-06-09 23:25:00,58.8,55.6,30.18,NE,47,0.0,0.0,89,0.00,,CLR,0.00,VWS V14.01,2013-06-10 03:25:00,
2013-06-09 23:30:00,58.9,55.7,30.18,NE,47,0.0,0.0,89,0.00,,CLR,0.00,VWS V14.01,2013-06-10 03:30:00,
2013-06-09 23:35:00,58.9,55.7,30.18,NE,47,0.0,0.0,89,0.00,,CLR,0.00,VWS V14.01,2013-06-10 03:35:00,
2013-06-09 23:40:00,58.8,55.6,30.17,NE,48,0.0,0.0,89,0.00,,CLR,0.00,VWS V14.01,2013-06-10 03:40:00,
2013-06-09 23:45:00,58.6,55.4,30.17,NE,47,0.0,0.0,89,0.00,,CLR,0.00,VWS V14.01,2013-06-10 03:45:00,
2013-06-09 23:50:00,58.4,55.2,30.17,NE,47,0.0,0.0,89,0.00,,CLR,0.00,VWS V14.01,2013-06-10 03:50:00,
2013-06-09 23:55:00,58.3,55.1,30.17,NE,47,0.0,0.0,89,0.00,,CLR,0.00,VWS V14.01,2013-06-10 03:55:00,